Airfield :
LOGIN :

Register | Disclaimer

   EN    FR    IT 

 










Legend :    VFR   Marginal VFR   IFR   Intensive IFR   Very Intensive IFR
Visi :
Ceiling :
>= 8 km
>= 3000ft
5 to 8 km
1000 to 3000 ft
1500m to 5 km
500 to 1000 ft
800 to 1500m
200 to 500 ft
< 800m
< 200 ft
Symbols :   Thunderstorms  Fog  Heavy snow  Heavy precipitations  Wind > 20 kt
SIGMETs :     Misc.  Thunderstorms  Icing  Turbulence  Mountain Waves  Volcanic Ashes







- Airport Elevation : 183 ft
- IATA code : HAJ


EDDV - Hanover/Langenhagen Int.

CURRENT METAR :
  • 190950Z 25012KT 9999 SCT018 08/04 Q1016 BECMG 25015G25KT

EXPIRED METARs :
  • 190920Z 25013KT 9999 BKN017 08/04 Q1016 BECMG 25015G25KT
  • 190850Z 25011KT 220V280 9999 BKN017 07/04 Q1016 BECMG 25015G25KT
  • 190820Z 25011KT 220V290 9999 BKN017 07/04 Q1015 BECMG 25015G25KT
  • 190750Z 25010KT 9999 BKN016 07/04 Q1015 BECMG 25015G25KT
  • 190720Z 24007KT 9999 SCT030 07/04 Q1015 BECMG 25015G25KT

TAF TAF EDDV
Valid from the 19 at 06:00 until the 20 at 06:00 UTC


190500Z 1906/2006 25008KT 9999 BKN035
BECMG 1906/1909 26013KT
TEMPO 1907/1910 BKN012
TEMPO 1910/1915 27015G25KT
BECMG 1915/1917 26008KT
No reported NOTAMs for that airfield.



MET'MAP, your aeronautical weather chart ! - Copyright ORBIFLY December 2007 - Disclaimer

ORBIFLY MET'MAP TEAM :

Programming & Development : Alexandra Zaïnal
Concept & Development : Baudouin d'Aumeries
Co-Development & Prog : Marc-Olivier Méhu
Technical & hardware support : Manuel Goepfert

Contact : metmap@orbifly.com




SOURCES & CREDITS :

   NOAA